sensor_id;sensor_type;location;lat;lon;timestamp;P1;durP1;ratioP1;P2;durP2;ratioP2
54743;SDS011;40639;53.170;6.728;2023-05-02T00:01:39;10.77;;;5.55;;
54743;SDS011;40639;53.170;6.728;2023-05-02T00:04:05;11.55;;;5.40;;
54743;SDS011;40639;53.170;6.728;2023-05-02T00:06:32;10.80;;;5.78;;
54743;SDS011;40639;53.170;6.728;2023-05-02T00:08:58;13.65;;;5.90;;
54743;SDS011;40639;53.170;6.728;2023-05-02T00:11:24;8.55;;;4.70;;
54743;SDS011;40639;53.170;6.728;2023-05-02T00:13:50;13.20;;;5.05;;
54743;SDS011;40639;53.170;6.728;2023-05-02T00:16:16;11.80;;;4.45;;
54743;SDS011;40639;53.170;6.728;2023-05-02T00:18:43;11.15;;;4.93;;
54743;SDS011;40639;53.170;6.728;2023-05-02T00:21:09;9.00;;;4.38;;
54743;SDS011;40639;53.170;6.728;2023-05-02T00:23:35;10.15;;;4.47;;
54743;SDS011;40639;53.170;6.728;2023-05-02T00:26:01;12.50;;;4.10;;
54743;SDS011;40639;53.170;6.728;2023-05-02T00:28:27;11.63;;;4.70;;
54743;SDS011;40639;53.170;6.728;2023-05-02T00:30:53;8.48;;;4.18;;
54743;SDS011;40639;53.170;6.728;2023-05-02T00:33:19;8.63;;;4.13;;
54743;SDS011;40639;53.170;6.728;2023-05-02T00:35:46;9.38;;;4.43;;
54743;SDS011;40639;53.170;6.728;2023-05-02T00:38:12;10.13;;;4.57;;
54743;SDS011;40639;53.170;6.728;2023-05-02T00:40:45;9.23;;;3.70;;
54743;SDS011;40639;53.170;6.728;2023-05-02T00:43:12;10.88;;;4.30;;
54743;SDS011;40639;53.170;6.728;2023-05-02T00:45:38;7.47;;;3.88;;
54743;SDS011;40639;53.170;6.728;2023-05-02T00:48:05;9.05;;;4.15;;
54743;SDS011;40639;53.170;6.728;2023-05-02T00:50:33;11.38;;;4.90;;
54743;SDS011;40639;53.170;6.728;2023-05-02T00:52:59;10.63;;;4.20;;
54743;SDS011;40639;53.170;6.728;2023-05-02T00:55:26;7.90;;;4.07;;
54743;SDS011;40639;53.170;6.728;2023-05-02T00:57:52;11.57;;;4.57;;
54743;SDS011;40639;53.170;6.728;2023-05-02T01:00:19;10.88;;;4.18;;
54743;SDS011;40639;53.170;6.728;2023-05-02T01:02:52;7.90;;;4.00;;
54743;SDS011;40639;53.170;6.728;2023-05-02T01:05:32;9.82;;;4.20;;
54743;SDS011;40639;53.170;6.728;2023-05-02T01:08:12;7.32;;;3.25;;
54743;SDS011;40639;53.170;6.728;2023-05-02T01:10:46;8.48;;;3.70;;
54743;SDS011;40639;53.170;6.728;2023-05-02T01:13:20;8.40;;;3.45;;
54743;SDS011;40639;53.170;6.728;2023-05-02T01:15:47;11.52;;;4.28;;
54743;SDS011;40639;53.170;6.728;2023-05-02T01:18:14;8.25;;;3.70;;
54743;SDS011;40639;53.170;6.728;2023-05-02T01:20:43;11.00;;;3.28;;
54743;SDS011;40639;53.170;6.728;2023-05-02T01:28:35;8.93;;;3.87;;
54743;SDS011;40639;53.170;6.728;2023-05-02T01:31:03;6.05;;;3.10;;
54743;SDS011;40639;53.170;6.728;2023-05-02T01:33:30;9.77;;;3.50;;
54743;SDS011;40639;53.170;6.728;2023-05-02T01:35:57;8.68;;;3.40;;
54743;SDS011;40639;53.170;6.728;2023-05-02T01:38:25;15.00;;;3.92;;
54743;SDS011;40639;53.170;6.728;2023-05-02T01:40:52;12.45;;;3.75;;
54743;SDS011;40639;53.170;6.728;2023-05-02T01:43:19;10.50;;;3.33;;
54743;SDS011;40639;53.170;6.728;2023-05-02T01:45:46;11.88;;;3.58;;
54743;SDS011;40639;53.170;6.728;2023-05-02T01:48:13;13.52;;;3.70;;
54743;SDS011;40639;53.170;6.728;2023-05-02T01:50:40;12.82;;;3.75;;
54743;SDS011;40639;53.170;6.728;2023-05-02T01:53:08;12.38;;;3.53;;
54743;SDS011;40639;53.170;6.728;2023-05-02T01:55:37;11.98;;;3.05;;
54743;SDS011;40639;53.170;6.728;2023-05-02T01:58:04;11.90;;;3.33;;
54743;SDS011;40639;53.170;6.728;2023-05-02T02:00:31;11.02;;;3.67;;
54743;SDS011;40639;53.170;6.728;2023-05-02T02:02:58;14.20;;;3.70;;
54743;SDS011;40639;53.170;6.728;2023-05-02T02:05:24;18.10;;;4.07;;
54743;SDS011;40639;53.170;6.728;2023-05-02T02:07:51;16.55;;;4.53;;
54743;SDS011;40639;53.170;6.728;2023-05-02T02:10:18;12.57;;;3.92;;
54743;SDS011;40639;53.170;6.728;2023-05-02T02:12:47;20.58;;;4.55;;
54743;SDS011;40639;53.170;6.728;2023-05-02T02:17:54;10.77;;;4.28;;
54743;SDS011;40639;53.170;6.728;2023-05-02T02:20:22;17.90;;;4.53;;
54743;SDS011;40639;53.170;6.728;2023-05-02T02:22:48;15.10;;;4.15;;
54743;SDS011;40639;53.170;6.728;2023-05-02T02:25:15;13.60;;;4.20;;
54743;SDS011;40639;53.170;6.728;2023-05-02T02:27:42;15.60;;;4.65;;
54743;SDS011;40639;53.170;6.728;2023-05-02T02:30:08;24.92;;;4.95;;
54743;SDS011;40639;53.170;6.728;2023-05-02T02:32:35;17.88;;;5.00;;
54743;SDS011;40639;53.170;6.728;2023-05-02T02:35:01;15.27;;;4.68;;
54743;SDS011;40639;53.170;6.728;2023-05-02T02:37:29;22.52;;;4.88;;
54743;SDS011;40639;53.170;6.728;2023-05-02T02:40:01;14.70;;;4.15;;
54743;SDS011;40639;53.170;6.728;2023-05-02T02:42:48;14.00;;;3.70;;
54743;SDS011;40639;53.170;6.728;2023-05-02T02:45:18;15.52;;;4.35;;
54743;SDS011;40639;53.170;6.728;2023-05-02T02:48:02;18.98;;;5.30;;
54743;SDS011;40639;53.170;6.728;2023-05-02T02:50:35;12.30;;;4.05;;
54743;SDS011;40639;53.170;6.728;2023-05-02T02:53:03;17.98;;;3.85;;
54743;SDS011;40639;53.170;6.728;2023-05-02T02:58:42;15.13;;;3.70;;
54743;SDS011;40639;53.170;6.728;2023-05-02T03:00:46;8.80;;;3.38;;
54743;SDS011;40639;53.170;6.728;2023-05-02T03:03:13;13.93;;;3.92;;
54743;SDS011;40639;53.170;6.728;2023-05-02T03:05:41;16.27;;;4.20;;
54743;SDS011;40639;53.170;6.728;2023-05-02T03:08:08;12.80;;;3.28;;
54743;SDS011;40639;53.170;6.728;2023-05-02T03:10:35;10.85;;;3.95;;
54743;SDS011;40639;53.170;6.728;2023-05-02T03:13:01;10.90;;;3.80;;
54743;SDS011;40639;53.170;6.728;2023-05-02T03:18:12;11.63;;;3.78;;
54743;SDS011;40639;53.170;6.728;2023-05-02T03:20:39;15.63;;;3.65;;
54743;SDS011;40639;53.170;6.728;2023-05-02T03:23:06;13.95;;;3.65;;
54743;SDS011;40639;53.170;6.728;2023-05-02T03:25:32;12.40;;;2.90;;
54743;SDS011;40639;53.170;6.728;2023-05-02T03:27:58;12.80;;;3.17;;
54743;SDS011;40639;53.170;6.728;2023-05-02T03:30:24;18.83;;;3.78;;
54743;SDS011;40639;53.170;6.728;2023-05-02T03:32:50;6.45;;;2.75;;
54743;SDS011;40639;53.170;6.728;2023-05-02T03:35:17;10.82;;;3.42;;
54743;SDS011;40639;53.170;6.728;2023-05-02T03:37:43;9.82;;;3.13;;
54743;SDS011;40639;53.170;6.728;2023-05-02T03:40:09;9.68;;;3.60;;
54743;SDS011;40639;53.170;6.728;2023-05-02T03:42:36;11.40;;;2.72;;
54743;SDS011;40639;53.170;6.728;2023-05-02T03:45:04;13.48;;;2.60;;
54743;SDS011;40639;53.170;6.728;2023-05-02T03:47:31;9.65;;;2.95;;
54743;SDS011;40639;53.170;6.728;2023-05-02T03:49:57;9.15;;;2.40;;
54743;SDS011;40639;53.170;6.728;2023-05-02T03:52:23;6.97;;;2.20;;
54743;SDS011;40639;53.170;6.728;2023-05-02T03:54:49;9.90;;;2.58;;
54743;SDS011;40639;53.170;6.728;2023-05-02T03:57:16;9.65;;;2.28;;
54743;SDS011;40639;53.170;6.728;2023-05-02T03:59:42;8.15;;;1.90;;
54743;SDS011;40639;53.170;6.728;2023-05-02T04:02:12;10.13;;;2.45;;
54743;SDS011;40639;53.170;6.728;2023-05-02T04:04:39;6.82;;;2.17;;
54743;SDS011;40639;53.170;6.728;2023-05-02T04:07:05;8.05;;;2.15;;
54743;SDS011;40639;53.170;6.728;2023-05-02T04:09:32;6.07;;;1.77;;
54743;SDS011;40639;53.170;6.728;2023-05-02T04:11:58;9.23;;;2.25;;
54743;SDS011;40639;53.170;6.728;2023-05-02T04:14:25;7.68;;;1.90;;
54743;SDS011;40639;53.170;6.728;2023-05-02T04:16:52;5.80;;;1.88;;
54743;SDS011;40639;53.170;6.728;2023-05-02T04:19:18;7.20;;;1.98;;
54743;SDS011;40639;53.170;6.728;2023-05-02T04:21:44;6.05;;;1.83;;
54743;SDS011;40639;53.170;6.728;2023-05-02T04:24:11;7.90;;;1.63;;
54743;SDS011;40639;53.170;6.728;2023-05-02T04:26:38;8.85;;;2.17;;
54743;SDS011;40639;53.170;6.728;2023-05-02T04:29:04;9.90;;;1.70;;
54743;SDS011;40639;53.170;6.728;2023-05-02T04:31:30;5.72;;;1.73;;
54743;SDS011;40639;53.170;6.728;2023-05-02T04:33:56;5.22;;;1.75;;
54743;SDS011;40639;53.170;6.728;2023-05-02T04:36:23;5.65;;;2.00;;
54743;SDS011;40639;53.170;6.728;2023-05-02T04:38:50;6.70;;;1.85;;
54743;SDS011;40639;53.170;6.728;2023-05-02T04:41:16;6.95;;;2.00;;
54743;SDS011;40639;53.170;6.728;2023-05-02T04:43:43;5.60;;;2.25;;
54743;SDS011;40639;53.170;6.728;2023-05-02T04:46:09;4.93;;;1.60;;
54743;SDS011;40639;53.170;6.728;2023-05-02T04:48:35;5.70;;;2.22;;
54743;SDS011;40639;53.170;6.728;2023-05-02T04:51:06;6.45;;;1.73;;
54743;SDS011;40639;53.170;6.728;2023-05-02T04:53:32;7.07;;;2.30;;
54743;SDS011;40639;53.170;6.728;2023-05-02T04:55:58;5.90;;;1.50;;
54743;SDS011;40639;53.170;6.728;2023-05-02T04:58:24;12.60;;;2.70;;
54743;SDS011;40639;53.170;6.728;2023-05-02T05:00:50;4.55;;;1.40;;
54743;SDS011;40639;53.170;6.728;2023-05-02T05:03:16;6.88;;;2.33;;
54743;SDS011;40639;53.170;6.728;2023-05-02T05:05:42;6.13;;;2.22;;
54743;SDS011;40639;53.170;6.728;2023-05-02T05:08:09;5.53;;;2.22;;
54743;SDS011;40639;53.170;6.728;2023-05-02T05:10:35;5.55;;;2.00;;
54743;SDS011;40639;53.170;6.728;2023-05-02T05:13:01;7.18;;;2.40;;
54743;SDS011;40639;53.170;6.728;2023-05-02T05:15:28;6.88;;;2.20;;
54743;SDS011;40639;53.170;6.728;2023-05-02T05:17:54;10.38;;;2.47;;
54743;SDS011;40639;53.170;6.728;2023-05-02T05:20:21;8.68;;;2.50;;
54743;SDS011;40639;53.170;6.728;2023-05-02T05:22:47;7.63;;;2.53;;
54743;SDS011;40639;53.170;6.728;2023-05-02T05:25:13;8.07;;;2.42;;
54743;SDS011;40639;53.170;6.728;2023-05-02T05:27:40;12.77;;;3.00;;
54743;SDS011;40639;53.170;6.728;2023-05-02T05:30:06;6.72;;;2.60;;
54743;SDS011;40639;53.170;6.728;2023-05-02T05:32:35;8.88;;;2.40;;
54743;SDS011;40639;53.170;6.728;2023-05-02T05:35:01;12.57;;;2.40;;
54743;SDS011;40639;53.170;6.728;2023-05-02T05:37:28;11.98;;;3.08;;
54743;SDS011;40639;53.170;6.728;2023-05-02T05:39:54;9.45;;;2.92;;
54743;SDS011;40639;53.170;6.728;2023-05-02T05:42:20;8.73;;;2.28;;
54743;SDS011;40639;53.170;6.728;2023-05-02T05:44:47;5.68;;;2.08;;
54743;SDS011;40639;53.170;6.728;2023-05-02T05:47:17;9.40;;;2.70;;
54743;SDS011;40639;53.170;6.728;2023-05-02T05:49:44;7.53;;;2.45;;
54743;SDS011;40639;53.170;6.728;2023-05-02T05:52:10;8.15;;;3.22;;
54743;SDS011;40639;53.170;6.728;2023-05-02T05:54:36;8.57;;;2.70;;
54743;SDS011;40639;53.170;6.728;2023-05-02T05:57:02;6.70;;;2.38;;
54743;SDS011;40639;53.170;6.728;2023-05-02T05:59:28;9.98;;;2.90;;
54743;SDS011;40639;53.170;6.728;2023-05-02T06:01:54;11.57;;;2.80;;
54743;SDS011;40639;53.170;6.728;2023-05-02T06:04:21;10.48;;;2.63;;
54743;SDS011;40639;53.170;6.728;2023-05-02T06:06:47;8.90;;;2.67;;
54743;SDS011;40639;53.170;6.728;2023-05-02T06:09:15;10.77;;;2.47;;
54743;SDS011;40639;53.170;6.728;2023-05-02T06:11:41;8.40;;;2.35;;
54743;SDS011;40639;53.170;6.728;2023-05-02T06:14:07;11.02;;;3.03;;
54743;SDS011;40639;53.170;6.728;2023-05-02T06:16:33;7.55;;;2.35;;
54743;SDS011;40639;53.170;6.728;2023-05-02T06:19:00;5.45;;;2.00;;
54743;SDS011;40639;53.170;6.728;2023-05-02T06:21:26;8.88;;;2.28;;
54743;SDS011;40639;53.170;6.728;2023-05-02T06:23:52;9.98;;;2.50;;
54743;SDS011;40639;53.170;6.728;2023-05-02T06:26:18;6.38;;;1.92;;
54743;SDS011;40639;53.170;6.728;2023-05-02T06:28:45;7.93;;;2.25;;
54743;SDS011;40639;53.170;6.728;2023-05-02T06:31:11;9.93;;;2.55;;
54743;SDS011;40639;53.170;6.728;2023-05-02T06:33:38;6.65;;;2.50;;
54743;SDS011;40639;53.170;6.728;2023-05-02T06:36:05;6.78;;;1.92;;
54743;SDS011;40639;53.170;6.728;2023-05-02T06:38:31;10.80;;;2.55;;
54743;SDS011;40639;53.170;6.728;2023-05-02T06:40:57;8.35;;;2.28;;
54743;SDS011;40639;53.170;6.728;2023-05-02T06:43:23;7.65;;;2.78;;
54743;SDS011;40639;53.170;6.728;2023-05-02T06:45:52;10.05;;;2.58;;
54743;SDS011;40639;53.170;6.728;2023-05-02T06:48:20;6.53;;;2.38;;
54743;SDS011;40639;53.170;6.728;2023-05-02T06:50:46;9.25;;;2.30;;
54743;SDS011;40639;53.170;6.728;2023-05-02T06:53:12;5.00;;;1.90;;
54743;SDS011;40639;53.170;6.728;2023-05-02T06:55:39;10.15;;;2.25;;
54743;SDS011;40639;53.170;6.728;2023-05-02T06:58:05;6.88;;;2.45;;
54743;SDS011;40639;53.170;6.728;2023-05-02T07:00:31;5.90;;;2.10;;
54743;SDS011;40639;53.170;6.728;2023-05-02T07:02:58;8.85;;;2.90;;
54743;SDS011;40639;53.170;6.728;2023-05-02T07:05:24;7.65;;;2.20;;
54743;SDS011;40639;53.170;6.728;2023-05-02T07:07:50;6.30;;;2.28;;
54743;SDS011;40639;53.170;6.728;2023-05-02T07:10:16;11.63;;;2.38;;
54743;SDS011;40639;53.170;6.728;2023-05-02T07:12:42;7.80;;;2.33;;
54743;SDS011;40639;53.170;6.728;2023-05-02T07:15:08;5.15;;;1.88;;
54743;SDS011;40639;53.170;6.728;2023-05-02T07:17:35;9.68;;;2.58;;
54743;SDS011;40639;53.170;6.728;2023-05-02T07:20:01;5.22;;;2.17;;
54743;SDS011;40639;53.170;6.728;2023-05-02T07:22:27;9.40;;;2.58;;
54743;SDS011;40639;53.170;6.728;2023-05-02T07:25:00;7.05;;;2.25;;
54743;SDS011;40639;53.170;6.728;2023-05-02T07:27:27;7.65;;;2.25;;
54743;SDS011;40639;53.170;6.728;2023-05-02T07:29:53;6.20;;;2.05;;
54743;SDS011;40639;53.170;6.728;2023-05-02T07:32:19;7.45;;;2.30;;
54743;SDS011;40639;53.170;6.728;2023-05-02T07:34:46;6.20;;;1.90;;
54743;SDS011;40639;53.170;6.728;2023-05-02T07:37:12;8.77;;;2.78;;
54743;SDS011;40639;53.170;6.728;2023-05-02T07:39:39;11.00;;;2.28;;
54743;SDS011;40639;53.170;6.728;2023-05-02T07:42:05;8.93;;;2.30;;
54743;SDS011;40639;53.170;6.728;2023-05-02T07:44:31;9.45;;;2.40;;
54743;SDS011;40639;53.170;6.728;2023-05-02T07:46:59;8.10;;;3.08;;
54743;SDS011;40639;53.170;6.728;2023-05-02T07:49:25;8.40;;;2.72;;
54743;SDS011;40639;53.170;6.728;2023-05-02T07:51:51;6.32;;;2.95;;
54743;SDS011;40639;53.170;6.728;2023-05-02T07:54:18;10.00;;;2.50;;
54743;SDS011;40639;53.170;6.728;2023-05-02T07:56:44;7.20;;;1.90;;
54743;SDS011;40639;53.170;6.728;2023-05-02T07:59:11;5.97;;;2.35;;
54743;SDS011;40639;53.170;6.728;2023-05-02T08:01:38;6.35;;;1.88;;
54743;SDS011;40639;53.170;6.728;2023-05-02T08:04:04;6.28;;;2.03;;
54743;SDS011;40639;53.170;6.728;2023-05-02T08:06:30;5.45;;;1.63;;
54743;SDS011;40639;53.170;6.728;2023-05-02T08:08:57;6.13;;;1.42;;
54743;SDS011;40639;53.170;6.728;2023-05-02T08:11:24;3.78;;;1.50;;
54743;SDS011;40639;53.170;6.728;2023-05-02T08:13:50;4.78;;;1.20;;
54743;SDS011;40639;53.170;6.728;2023-05-02T08:16:17;3.92;;;1.60;;
54743;SDS011;40639;53.170;6.728;2023-05-02T08:18:44;6.53;;;1.80;;
54743;SDS011;40639;53.170;6.728;2023-05-02T08:21:10;5.55;;;1.50;;
54743;SDS011;40639;53.170;6.728;2023-05-02T08:23:36;5.88;;;1.48;;
54743;SDS011;40639;53.170;6.728;2023-05-02T08:26:04;5.93;;;1.67;;
54743;SDS011;40639;53.170;6.728;2023-05-02T08:28:30;4.20;;;1.20;;
54743;SDS011;40639;53.170;6.728;2023-05-02T08:30:57;5.95;;;1.30;;
54743;SDS011;40639;53.170;6.728;2023-05-02T08:33:23;4.40;;;1.35;;
54743;SDS011;40639;53.170;6.728;2023-05-02T08:35:49;4.00;;;1.60;;
54743;SDS011;40639;53.170;6.728;2023-05-02T08:38:15;4.93;;;1.23;;
54743;SDS011;40639;53.170;6.728;2023-05-02T08:40:42;6.00;;;1.17;;
54743;SDS011;40639;53.170;6.728;2023-05-02T08:43:09;4.10;;;1.23;;
54743;SDS011;40639;53.170;6.728;2023-05-02T08:45:42;3.08;;;1.00;;
54743;SDS011;40639;53.170;6.728;2023-05-02T08:48:10;3.22;;;1.17;;
54743;SDS011;40639;53.170;6.728;2023-05-02T08:50:37;3.78;;;1.25;;
54743;SDS011;40639;53.170;6.728;2023-05-02T08:53:05;3.15;;;1.17;;
54743;SDS011;40639;53.170;6.728;2023-05-02T08:55:33;4.00;;;1.20;;
54743;SDS011;40639;53.170;6.728;2023-05-02T08:57:59;3.42;;;1.10;;
54743;SDS011;40639;53.170;6.728;2023-05-02T09:00:26;4.15;;;1.33;;
54743;SDS011;40639;53.170;6.728;2023-05-02T09:05:19;3.53;;;1.30;;
54743;SDS011;40639;53.170;6.728;2023-05-02T09:07:49;6.95;;;1.63;;
54743;SDS011;40639;53.170;6.728;2023-05-02T09:10:16;6.28;;;1.15;;
54743;SDS011;40639;53.170;6.728;2023-05-02T09:12:42;5.07;;;1.42;;
54743;SDS011;40639;53.170;6.728;2023-05-02T09:15:09;5.40;;;1.58;;
54743;SDS011;40639;53.170;6.728;2023-05-02T09:17:39;4.68;;;1.25;;
54743;SDS011;40639;53.170;6.728;2023-05-02T09:20:06;4.82;;;1.10;;
54743;SDS011;40639;53.170;6.728;2023-05-02T09:22:32;2.65;;;1.15;;
54743;SDS011;40639;53.170;6.728;2023-05-02T09:24:59;3.97;;;1.20;;
54743;SDS011;40639;53.170;6.728;2023-05-02T09:27:26;4.40;;;1.05;;
54743;SDS011;40639;53.170;6.728;2023-05-02T09:29:54;5.15;;;1.00;;
54743;SDS011;40639;53.170;6.728;2023-05-02T09:32:44;6.55;;;1.02;;
54743;SDS011;40639;53.170;6.728;2023-05-02T09:35:11;4.53;;;1.38;;
54743;SDS011;40639;53.170;6.728;2023-05-02T09:37:37;5.28;;;1.80;;
54743;SDS011;40639;53.170;6.728;2023-05-02T09:40:07;3.17;;;1.13;;
54743;SDS011;40639;53.170;6.728;2023-05-02T09:42:33;3.45;;;1.20;;
54743;SDS011;40639;53.170;6.728;2023-05-02T09:45:00;4.82;;;0.95;;
54743;SDS011;40639;53.170;6.728;2023-05-02T09:47:26;4.63;;;1.30;;
54743;SDS011;40639;53.170;6.728;2023-05-02T09:49:52;4.28;;;1.20;;
54743;SDS011;40639;53.170;6.728;2023-05-02T09:52:19;9.85;;;1.33;;
54743;SDS011;40639;53.170;6.728;2023-05-02T09:54:45;4.18;;;1.23;;
54743;SDS011;40639;53.170;6.728;2023-05-02T09:57:17;2.45;;;0.98;;
54743;SDS011;40639;53.170;6.728;2023-05-02T10:00:05;2.28;;;0.95;;
54743;SDS011;40639;53.170;6.728;2023-05-02T10:02:31;5.63;;;1.27;;
54743;SDS011;40639;53.170;6.728;2023-05-02T10:04:58;2.30;;;1.05;;
54743;SDS011;40639;53.170;6.728;2023-05-02T10:07:25;4.85;;;1.13;;
54743;SDS011;40639;53.170;6.728;2023-05-02T10:09:52;4.85;;;1.17;;
54743;SDS011;40639;53.170;6.728;2023-05-02T10:12:19;3.25;;;1.23;;
54743;SDS011;40639;53.170;6.728;2023-05-02T10:14:51;4.38;;;1.45;;
54743;SDS011;40639;53.170;6.728;2023-05-02T10:17:21;3.75;;;1.33;;
54743;SDS011;40639;53.170;6.728;2023-05-02T10:20:07;3.92;;;1.00;;
54743;SDS011;40639;53.170;6.728;2023-05-02T10:22:34;11.02;;;1.30;;
54743;SDS011;40639;53.170;6.728;2023-05-02T10:25:01;4.15;;;1.10;;
54743;SDS011;40639;53.170;6.728;2023-05-02T10:27:28;6.72;;;1.92;;
54743;SDS011;40639;53.170;6.728;2023-05-02T10:29:55;6.15;;;1.45;;
54743;SDS011;40639;53.170;6.728;2023-05-02T10:32:23;2.72;;;1.00;;
54743;SDS011;40639;53.170;6.728;2023-05-02T10:34:53;4.30;;;0.93;;
54743;SDS011;40639;53.170;6.728;2023-05-02T10:37:20;5.47;;;1.70;;
54743;SDS011;40639;53.170;6.728;2023-05-02T10:39:46;6.05;;;1.40;;
54743;SDS011;40639;53.170;6.728;2023-05-02T10:42:12;5.28;;;1.45;;
54743;SDS011;40639;53.170;6.728;2023-05-02T10:44:39;6.30;;;1.40;;
54743;SDS011;40639;53.170;6.728;2023-05-02T10:47:19;4.45;;;1.42;;
54743;SDS011;40639;53.170;6.728;2023-05-02T10:49:49;3.80;;;1.40;;
54743;SDS011;40639;53.170;6.728;2023-05-02T10:55:12;3.72;;;1.20;;
54743;SDS011;40639;53.170;6.728;2023-05-02T11:00:24;2.83;;;1.00;;
54743;SDS011;40639;53.170;6.728;2023-05-02T11:02:50;6.15;;;1.38;;
54743;SDS011;40639;53.170;6.728;2023-05-02T11:05:16;2.63;;;1.00;;
54743;SDS011;40639;53.170;6.728;2023-05-02T11:10:28;4.65;;;1.17;;
54743;SDS011;40639;53.170;6.728;2023-05-02T11:12:55;1.83;;;1.00;;
54743;SDS011;40639;53.170;6.728;2023-05-02T11:20:23;1.97;;;1.03;;
54743;SDS011;40639;53.170;6.728;2023-05-02T11:22:50;5.47;;;1.80;;
54743;SDS011;40639;53.170;6.728;2023-05-02T11:25:32;7.22;;;1.25;;
54743;SDS011;40639;53.170;6.728;2023-05-02T11:27:59;2.85;;;1.30;;
54743;SDS011;40639;53.170;6.728;2023-05-02T11:30:35;22.30;;;2.63;;
54743;SDS011;40639;53.170;6.728;2023-05-02T11:35:30;4.32;;;0.90;;
54743;SDS011;40639;53.170;6.728;2023-05-02T11:40:29;5.53;;;1.20;;
54743;SDS011;40639;53.170;6.728;2023-05-02T11:42:56;2.88;;;0.93;;
54743;SDS011;40639;53.170;6.728;2023-05-02T11:45:32;2.25;;;0.95;;
54743;SDS011;40639;53.170;6.728;2023-05-02T11:48:01;4.35;;;1.20;;
54743;SDS011;40639;53.170;6.728;2023-05-02T11:50:27;1.45;;;1.00;;
54743;SDS011;40639;53.170;6.728;2023-05-02T11:52:54;2.63;;;0.70;;
54743;SDS011;40639;53.170;6.728;2023-05-02T11:55:21;2.83;;;0.82;;
54743;SDS011;40639;53.170;6.728;2023-05-02T11:57:47;2.55;;;0.68;;
54743;SDS011;40639;53.170;6.728;2023-05-02T12:00:13;7.97;;;1.30;;
54743;SDS011;40639;53.170;6.728;2023-05-02T12:02:41;5.22;;;1.00;;
54743;SDS011;40639;53.170;6.728;2023-05-02T12:05:08;6.03;;;1.00;;
54743;SDS011;40639;53.170;6.728;2023-05-02T12:10:04;8.32;;;1.20;;
54743;SDS011;40639;53.170;6.728;2023-05-02T12:12:31;2.17;;;0.77;;
54743;SDS011;40639;53.170;6.728;2023-05-02T12:14:57;2.50;;;0.75;;
54743;SDS011;40639;53.170;6.728;2023-05-02T12:17:23;2.72;;;0.68;;
54743;SDS011;40639;53.170;6.728;2023-05-02T12:19:50;1.80;;;0.60;;
54743;SDS011;40639;53.170;6.728;2023-05-02T12:22:16;2.88;;;0.73;;
54743;SDS011;40639;53.170;6.728;2023-05-02T12:24:42;3.10;;;0.70;;
54743;SDS011;40639;53.170;6.728;2023-05-02T12:27:09;6.63;;;1.35;;
54743;SDS011;40639;53.170;6.728;2023-05-02T12:29:42;5.00;;;0.50;;
54743;SDS011;40639;53.170;6.728;2023-05-02T12:32:09;1.20;;;0.70;;
54743;SDS011;40639;53.170;6.728;2023-05-02T12:34:36;3.33;;;0.63;;
54743;SDS011;40639;53.170;6.728;2023-05-02T12:37:03;2.78;;;0.60;;
54743;SDS011;40639;53.170;6.728;2023-05-02T12:39:39;1.38;;;0.40;;
54743;SDS011;40639;53.170;6.728;2023-05-02T12:42:10;2.35;;;0.60;;
54743;SDS011;40639;53.170;6.728;2023-05-02T12:44:38;1.58;;;0.55;;
54743;SDS011;40639;53.170;6.728;2023-05-02T12:47:04;8.65;;;0.80;;
54743;SDS011;40639;53.170;6.728;2023-05-02T12:49:31;3.58;;;0.55;;
54743;SDS011;40639;53.170;6.728;2023-05-02T12:51:58;3.67;;;0.75;;
54743;SDS011;40639;53.170;6.728;2023-05-02T12:54:24;2.05;;;0.50;;
54743;SDS011;40639;53.170;6.728;2023-05-02T12:56:50;4.22;;;0.73;;
54743;SDS011;40639;53.170;6.728;2023-05-02T12:59:26;2.17;;;0.70;;
54743;SDS011;40639;53.170;6.728;2023-05-02T13:01:53;2.90;;;0.70;;
54743;SDS011;40639;53.170;6.728;2023-05-02T13:04:19;3.53;;;0.63;;
54743;SDS011;40639;53.170;6.728;2023-05-02T13:06:45;4.95;;;0.80;;
54743;SDS011;40639;53.170;6.728;2023-05-02T13:09:11;1.55;;;0.70;;
54743;SDS011;40639;53.170;6.728;2023-05-02T13:11:38;2.00;;;0.70;;
54743;SDS011;40639;53.170;6.728;2023-05-02T13:14:04;1.73;;;0.70;;
54743;SDS011;40639;53.170;6.728;2023-05-02T13:16:30;1.60;;;0.80;;
54743;SDS011;40639;53.170;6.728;2023-05-02T13:18:58;3.13;;;0.98;;
54743;SDS011;40639;53.170;6.728;2023-05-02T13:21:25;2.30;;;0.85;;
54743;SDS011;40639;53.170;6.728;2023-05-02T13:23:51;3.47;;;0.80;;
54743;SDS011;40639;53.170;6.728;2023-05-02T13:26:19;3.80;;;0.85;;
54743;SDS011;40639;53.170;6.728;2023-05-02T13:28:45;2.13;;;0.70;;
54743;SDS011;40639;53.170;6.728;2023-05-02T13:31:11;4.20;;;0.82;;
54743;SDS011;40639;53.170;6.728;2023-05-02T13:33:37;1.95;;;0.75;;
54743;SDS011;40639;53.170;6.728;2023-05-02T13:36:04;4.85;;;1.10;;
54743;SDS011;40639;53.170;6.728;2023-05-02T13:38:30;3.25;;;0.80;;
54743;SDS011;40639;53.170;6.728;2023-05-02T13:40:58;2.65;;;0.82;;
54743;SDS011;40639;53.170;6.728;2023-05-02T13:43:24;3.50;;;1.05;;
54743;SDS011;40639;53.170;6.728;2023-05-02T13:45:50;2.45;;;0.95;;
54743;SDS011;40639;53.170;6.728;2023-05-02T13:48:16;2.28;;;1.00;;
54743;SDS011;40639;53.170;6.728;2023-05-02T13:50:42;5.00;;;1.08;;
54743;SDS011;40639;53.170;6.728;2023-05-02T13:53:08;3.08;;;0.93;;
54743;SDS011;40639;53.170;6.728;2023-05-02T13:55:35;2.40;;;0.63;;
54743;SDS011;40639;53.170;6.728;2023-05-02T13:58:01;0.88;;;0.55;;
54743;SDS011;40639;53.170;6.728;2023-05-02T14:00:27;8.10;;;1.98;;
54743;SDS011;40639;53.170;6.728;2023-05-02T14:02:54;10.70;;;0.95;;
54743;SDS011;40639;53.170;6.728;2023-05-02T14:05:20;14.93;;;1.27;;
54743;SDS011;40639;53.170;6.728;2023-05-02T14:07:46;2.53;;;0.60;;
54743;SDS011;40639;53.170;6.728;2023-05-02T14:10:12;4.32;;;0.77;;
54743;SDS011;40639;53.170;6.728;2023-05-02T14:12:39;2.72;;;0.70;;
54743;SDS011;40639;53.170;6.728;2023-05-02T14:15:05;2.33;;;0.73;;
54743;SDS011;40639;53.170;6.728;2023-05-02T14:17:32;4.65;;;1.15;;
54743;SDS011;40639;53.170;6.728;2023-05-02T14:19:58;1.50;;;0.52;;
54743;SDS011;40639;53.170;6.728;2023-05-02T14:22:24;5.28;;;1.23;;
54743;SDS011;40639;53.170;6.728;2023-05-02T14:24:50;3.20;;;0.75;;
54743;SDS011;40639;53.170;6.728;2023-05-02T14:27:16;1.92;;;0.57;;
54743;SDS011;40639;53.170;6.728;2023-05-02T14:29:43;3.08;;;0.60;;
54743;SDS011;40639;53.170;6.728;2023-05-02T14:32:10;2.60;;;0.55;;
54743;SDS011;40639;53.170;6.728;2023-05-02T14:34:36;6.05;;;0.75;;
54743;SDS011;40639;53.170;6.728;2023-05-02T14:37:02;3.17;;;0.70;;
54743;SDS011;40639;53.170;6.728;2023-05-02T14:39:28;2.58;;;0.60;;
54743;SDS011;40639;53.170;6.728;2023-05-02T14:41:54;3.33;;;0.80;;
54743;SDS011;40639;53.170;6.728;2023-05-02T14:44:20;4.70;;;0.80;;
54743;SDS011;40639;53.170;6.728;2023-05-02T14:46:47;5.53;;;0.82;;
54743;SDS011;40639;53.170;6.728;2023-05-02T14:49:13;4.07;;;0.90;;
54743;SDS011;40639;53.170;6.728;2023-05-02T14:51:39;2.38;;;0.73;;
54743;SDS011;40639;53.170;6.728;2023-05-02T14:54:06;3.22;;;1.30;;
54743;SDS011;40639;53.170;6.728;2023-05-02T14:56:33;4.65;;;1.00;;
54743;SDS011;40639;53.170;6.728;2023-05-02T14:58:59;3.90;;;0.88;;
54743;SDS011;40639;53.170;6.728;2023-05-02T15:01:25;4.65;;;1.10;;
54743;SDS011;40639;53.170;6.728;2023-05-02T15:03:51;2.75;;;1.08;;
54743;SDS011;40639;53.170;6.728;2023-05-02T15:06:18;3.47;;;0.80;;
54743;SDS011;40639;53.170;6.728;2023-05-02T15:08:45;1.75;;;0.90;;
54743;SDS011;40639;53.170;6.728;2023-05-02T15:11:12;1.95;;;0.70;;
54743;SDS011;40639;53.170;6.728;2023-05-02T15:13:38;4.30;;;1.35;;
54743;SDS011;40639;53.170;6.728;2023-05-02T15:16:04;2.70;;;0.82;;
54743;SDS011;40639;53.170;6.728;2023-05-02T15:18:31;1.70;;;0.70;;
54743;SDS011;40639;53.170;6.728;2023-05-02T15:20:57;2.30;;;0.90;;
54743;SDS011;40639;53.170;6.728;2023-05-02T15:23:23;4.43;;;1.15;;